createdAt,value
2018-10-03T00:01:05.977Z,66.84
2018-10-03T00:03:33.707Z,67.50
2018-10-03T00:06:01.488Z,67.25
2018-10-03T00:08:29.194Z,66.33
2018-10-03T00:10:57.065Z,67.31
2018-10-03T00:13:24.872Z,67.26
2018-10-03T00:15:52.703Z,67.17
2018-10-03T00:18:20.464Z,67.47
2018-10-03T00:20:48.281Z,67.60
2018-10-03T00:23:16.044Z,67.50
2018-10-03T00:25:43.853Z,67.57
2018-10-03T00:28:11.757Z,67.05
2018-10-03T00:30:39.498Z,67.44
2018-10-03T00:33:07.397Z,67.53
2018-10-03T00:35:35.109Z,67.24
2018-10-03T00:38:02.935Z,67.84
2018-10-03T00:40:30.758Z,67.23
2018-10-03T00:42:58.670Z,67.04
2018-10-03T00:45:26.566Z,67.86
2018-10-03T00:47:54.463Z,68.14
2018-10-03T00:50:22.362Z,67.82
2018-10-03T00:52:50.192Z,67.24
2018-10-03T00:55:18.005Z,67.16
2018-10-03T00:57:45.834Z,67.20
2018-10-03T01:00:13.672Z,66.89
2018-10-03T01:02:41.565Z,66.69
2018-10-03T01:05:09.598Z,66.79
2018-10-03T01:07:37.318Z,67.16
2018-10-03T01:10:05.193Z,66.33
2018-10-03T01:12:32.983Z,66.55
2018-10-03T01:15:00.640Z,66.56
2018-10-03T01:17:28.471Z,66.09
2018-10-03T01:19:56.182Z,66.29
2018-10-03T01:22:23.949Z,65.54
2018-10-03T01:24:51.776Z,66.08
2018-10-03T01:27:19.502Z,66.81
2018-10-03T01:29:47.286Z,66.50
2018-10-03T01:32:15.074Z,65.73
2018-10-03T01:34:42.913Z,66.27
2018-10-03T01:37:10.680Z,66.02
2018-10-03T01:39:38.386Z,66.27
2018-10-03T01:42:06.595Z,66.04
2018-10-03T01:44:34.409Z,65.86
2018-10-03T01:47:02.147Z,64.77
2018-10-03T01:49:29.911Z,65.27
2018-10-03T01:51:57.664Z,65.45
2018-10-03T01:54:25.575Z,65.26
2018-10-03T01:56:53.292Z,64.42
2018-10-03T01:59:21.057Z,63.66
2018-10-03T02:01:48.781Z,62.79
2018-10-03T02:04:16.587Z,62.37
2018-10-03T02:06:44.452Z,61.40
2018-10-03T02:09:12.264Z,60.62
2018-10-03T02:11:39.997Z,59.71
2018-10-03T02:14:07.777Z,59.28
2018-10-03T02:16:35.519Z,59.53
2018-10-03T02:19:03.521Z,58.65
2018-10-03T02:21:31.490Z,58.45
2018-10-03T02:23:59.297Z,57.07
2018-10-03T02:26:27.148Z,56.90
2018-10-03T02:28:54.898Z,56.83
2018-10-03T02:31:22.782Z,56.88
2018-10-03T02:33:50.595Z,56.61
2018-10-03T02:36:18.447Z,56.08
2018-10-03T02:38:46.293Z,55.73
2018-10-03T02:41:14.196Z,56.10
2018-10-03T02:43:42.082Z,56.05
2018-10-03T02:46:09.892Z,56.53
2018-10-03T02:48:37.723Z,56.29
2018-10-03T02:51:05.593Z,56.33
2018-10-03T02:53:33.639Z,56.62
2018-10-03T02:56:01.495Z,56.73
2018-10-03T02:58:29.416Z,57.13
2018-10-03T03:00:57.187Z,57.11
2018-10-03T03:03:25.068Z,56.85
2018-10-03T03:05:52.852Z,57.17
2018-10-03T03:08:20.755Z,57.50
2018-10-03T03:10:48.546Z,58.02
2018-10-03T03:13:16.374Z,58.34
2018-10-03T03:15:44.206Z,57.45
2018-10-03T03:18:12.120Z,58.15
2018-10-03T03:20:39.871Z,58.63
2018-10-03T03:23:07.642Z,58.00
2018-10-03T03:25:35.441Z,58.56
2018-10-03T03:28:03.468Z,57.90
2018-10-03T03:30:31.263Z,57.94
2018-10-03T03:32:59.104Z,58.32
2018-10-03T03:35:26.861Z,58.72
2018-10-03T03:37:54.846Z,58.94
2018-10-03T03:40:22.537Z,59.24
2018-10-03T03:42:50.286Z,59.37
2018-10-03T03:45:18.008Z,59.84
2018-10-03T03:47:45.743Z,59.77
2018-10-03T03:50:13.599Z,59.26
2018-10-03T03:52:41.309Z,59.15
2018-10-03T03:55:09.043Z,59.27
2018-10-03T03:57:36.875Z,58.84
2018-10-03T04:00:04.830Z,58.82
2018-10-03T04:02:32.652Z,58.68
2018-10-03T04:05:00.395Z,59.41
2018-10-03T04:07:28.217Z,58.85
2018-10-03T04:09:55.991Z,59.49
2018-10-03T04:12:23.737Z,59.20
2018-10-03T04:14:51.494Z,59.16
2018-10-03T04:17:19.321Z,59.56
2018-10-03T04:19:47.127Z,59.17
2018-10-03T04:22:14.937Z,58.95
2018-10-03T04:24:42.673Z,58.97
2018-10-03T04:27:10.491Z,58.15
2018-10-03T04:29:38.303Z,58.11
2018-10-03T04:32:06.085Z,57.08
2018-10-03T04:34:33.866Z,56.70
2018-10-03T04:37:01.593Z,57.29
2018-10-03T04:39:29.367Z,56.57
2018-10-03T04:41:57.093Z,56.36
2018-10-03T04:44:24.856Z,55.92
2018-10-03T04:46:52.659Z,56.34
2018-10-03T04:49:20.467Z,57.18
2018-10-03T04:51:48.154Z,57.41
2018-10-03T04:54:15.983Z,58.35
2018-10-03T04:56:43.808Z,57.56
2018-10-03T04:59:11.494Z,58.66
2018-10-03T05:01:39.178Z,58.96
2018-10-03T05:04:06.950Z,58.57
2018-10-03T05:06:34.766Z,58.46
2018-10-03T05:09:04.006Z,57.98
2018-10-03T05:11:31.748Z,58.11
2018-10-03T05:13:59.550Z,58.15
2018-10-03T05:16:27.367Z,56.45
2018-10-03T05:18:55.274Z,55.97
2018-10-03T05:21:23.108Z,55.60
2018-10-03T05:23:51.613Z,54.49
2018-10-03T05:26:19.354Z,53.94
2018-10-03T05:28:47.206Z,53.02
2018-10-03T05:31:15.204Z,52.65
2018-10-03T05:33:43.326Z,52.13
2018-10-03T05:36:11.038Z,51.89
2018-10-03T05:38:38.780Z,51.80
2018-10-03T05:41:06.467Z,51.79
2018-10-03T05:43:34.146Z,51.72
2018-10-03T05:46:01.765Z,51.33
2018-10-03T05:48:29.567Z,51.05
2018-10-03T05:50:57.088Z,51.00
2018-10-03T05:53:24.753Z,50.69
2018-10-03T05:55:52.421Z,50.63
2018-10-03T05:58:20.175Z,50.35
2018-10-03T06:00:47.951Z,51.17
2018-10-03T06:03:15.692Z,50.22
2018-10-03T06:05:43.299Z,50.71
2018-10-03T06:08:11.046Z,49.78
2018-10-03T06:10:38.693Z,50.14
2018-10-03T06:13:06.897Z,50.40
2018-10-03T06:15:34.585Z,49.51
2018-10-03T06:18:02.322Z,49.67
2018-10-03T06:20:30.019Z,49.36
2018-10-03T06:22:57.700Z,49.23
2018-10-03T06:25:25.501Z,49.17
2018-10-03T06:27:53.146Z,48.70
2018-10-03T06:30:20.881Z,49.10
2018-10-03T06:32:48.610Z,49.19
2018-10-03T06:35:16.272Z,49.14
2018-10-03T06:37:43.900Z,49.04
2018-10-03T06:40:11.560Z,49.47
2018-10-03T06:42:39.506Z,48.89
2018-10-03T06:45:07.262Z,48.07
2018-10-03T06:47:34.944Z,47.91
2018-10-03T06:50:02.570Z,48.31
2018-10-03T06:52:30.253Z,48.39
2018-10-03T06:54:57.892Z,48.11
2018-10-03T06:57:25.587Z,48.31
2018-10-03T06:59:53.299Z,48.22
2018-10-03T07:02:20.918Z,48.54
2018-10-03T07:04:48.610Z,51.64
2018-10-03T07:07:16.329Z,54.06
2018-10-03T07:09:44.010Z,54.98
2018-10-03T07:12:11.694Z,55.50
2018-10-03T07:14:39.400Z,54.83
2018-10-03T07:17:07.126Z,54.88
2018-10-03T07:19:34.898Z,53.77
2018-10-03T07:22:02.585Z,54.28
2018-10-03T07:24:30.249Z,55.10
2018-10-03T07:26:58.213Z,60.53
2018-10-03T07:29:25.939Z,61.77
2018-10-03T07:31:53.649Z,63.42
2018-10-03T07:34:21.260Z,63.39
2018-10-03T07:36:48.966Z,63.45
2018-10-03T07:39:16.874Z,61.23
2018-10-03T07:41:44.860Z,61.12
2018-10-03T07:44:12.696Z,60.43
2018-10-03T07:46:40.483Z,60.05
2018-10-03T07:49:08.288Z,58.41
2018-10-03T07:51:36.040Z,57.11
2018-10-03T07:54:04.029Z,55.74
2018-10-03T07:56:31.943Z,56.26
2018-10-03T07:59:00.083Z,55.62
2018-10-03T08:01:27.883Z,55.70
2018-10-03T08:03:55.594Z,54.70
2018-10-03T08:06:23.321Z,54.86
2018-10-03T08:08:51.113Z,54.79
2018-10-03T08:11:18.969Z,53.44
2018-10-03T08:13:46.623Z,53.21
2018-10-03T08:16:14.308Z,52.34
2018-10-03T08:18:42.071Z,52.05
2018-10-03T08:21:09.796Z,49.89
2018-10-03T08:23:37.565Z,52.01
2018-10-03T08:26:05.510Z,51.59
2018-10-03T08:28:33.228Z,51.41
2018-10-03T08:31:00.995Z,51.75
2018-10-03T08:33:28.627Z,50.87
2018-10-03T08:35:56.328Z,49.59
2018-10-03T08:38:24.032Z,49.74
2018-10-03T08:40:51.816Z,48.96
2018-10-03T08:43:19.406Z,47.93
2018-10-03T08:45:47.195Z,48.43
2018-10-03T08:48:14.870Z,48.12
2018-10-03T08:50:42.614Z,47.57
2018-10-03T08:53:10.287Z,46.90
2018-10-03T08:55:38.060Z,46.37
2018-10-03T08:58:05.932Z,45.29
2018-10-03T09:00:33.778Z,45.90
2018-10-03T09:03:01.534Z,46.46
2018-10-03T09:05:29.452Z,45.84
2018-10-03T09:08:08.072Z,46.75
2018-10-03T09:10:35.773Z,46.80
2018-10-03T09:13:03.462Z,46.52
2018-10-03T09:15:31.191Z,45.89
2018-10-03T09:18:00.322Z,46.83
2018-10-03T09:20:28.745Z,46.88
2018-10-03T09:22:56.755Z,46.84
2018-10-03T09:25:24.711Z,44.81
2018-10-03T09:27:52.953Z,45.82
2018-10-03T09:30:21.797Z,45.54
2018-10-03T09:32:50.725Z,44.91
2018-10-03T09:35:21.917Z,44.60
2018-10-03T09:37:50.180Z,44.34
2018-10-03T09:40:18.180Z,43.01
2018-10-03T09:42:46.376Z,44.34
2018-10-03T09:45:14.684Z,44.32
2018-10-03T09:47:43.144Z,43.98
2018-10-03T09:50:11.370Z,42.75
2018-10-03T09:52:41.746Z,43.99
2018-10-03T09:55:09.809Z,44.94
2018-10-03T09:57:37.508Z,43.95
2018-10-03T10:00:06.166Z,43.80
2018-10-03T10:02:33.796Z,44.51
2018-10-03T10:05:01.580Z,44.60
2018-10-03T10:07:29.413Z,43.41
2018-10-03T10:09:57.216Z,42.17
2018-10-03T10:12:24.927Z,42.83
2018-10-03T10:14:52.652Z,43.20
2018-10-03T10:17:20.444Z,43.30
2018-10-03T10:19:48.237Z,42.31
2018-10-03T10:22:16.085Z,42.87
2018-10-03T10:24:44.037Z,42.84
2018-10-03T10:27:12.006Z,43.07
2018-10-03T10:29:39.803Z,42.92
2018-10-03T10:32:07.678Z,42.51
2018-10-03T10:34:35.384Z,42.12
2018-10-03T10:37:03.145Z,41.52
2018-10-03T10:39:30.923Z,42.78
2018-10-03T10:41:58.814Z,45.03
2018-10-03T10:44:26.439Z,54.49
2018-10-03T10:46:54.253Z,55.32
2018-10-03T10:49:21.987Z,53.52
2018-10-03T10:51:49.795Z,57.13
2018-10-03T10:54:17.399Z,56.54
2018-10-03T10:56:45.107Z,54.12
2018-10-03T10:59:12.770Z,52.33
2018-10-03T11:01:40.546Z,49.44
2018-10-03T11:04:08.251Z,46.77
2018-10-03T11:06:36.237Z,43.45
2018-10-03T11:09:04.907Z,40.31
2018-10-03T11:11:32.837Z,39.45
2018-10-03T11:14:00.615Z,41.04
2018-10-03T11:16:28.467Z,43.15
2018-10-03T11:18:56.208Z,45.67
2018-10-03T11:21:23.880Z,52.52
2018-10-03T11:23:51.647Z,56.06
2018-10-03T11:26:24.141Z,58.98
2018-10-03T11:28:51.974Z,61.45
2018-10-03T11:31:20.016Z,59.82
2018-10-03T11:33:47.961Z,55.41
2018-10-03T11:36:15.682Z,52.27
2018-10-03T11:38:43.503Z,53.25
2018-10-03T11:41:11.369Z,55.70
2018-10-03T11:43:39.290Z,58.03
2018-10-03T11:46:07.257Z,57.19
2018-10-03T11:48:35.149Z,51.68
2018-10-03T11:51:02.910Z,45.86
2018-10-03T11:53:30.796Z,42.16
2018-10-03T11:55:58.578Z,44.20
2018-10-03T11:58:26.283Z,44.22
2018-10-03T12:00:53.994Z,39.03
2018-10-03T12:03:21.982Z,38.83
2018-10-03T12:05:49.579Z,45.85
2018-10-03T12:08:17.537Z,54.50
2018-10-03T12:10:45.239Z,57.09
2018-10-03T12:13:13.112Z,58.20
2018-10-03T12:15:40.948Z,58.49
2018-10-03T12:18:09.060Z,53.29
2018-10-03T12:20:36.890Z,48.64
2018-10-03T12:23:04.604Z,50.09
2018-10-03T12:25:32.340Z,51.08
2018-10-03T12:28:00.000Z,54.05
2018-10-03T12:30:28.324Z,57.17
2018-10-03T12:32:56.058Z,58.17
2018-10-03T12:35:29.375Z,56.94
2018-10-03T12:37:57.951Z,55.82
2018-10-03T12:40:25.627Z,55.98
2018-10-03T12:42:53.512Z,54.85
2018-10-03T12:45:21.417Z,54.96
2018-10-03T12:47:49.148Z,54.27
2018-10-03T12:50:16.950Z,52.04
2018-10-03T12:52:44.634Z,51.87
2018-10-03T12:55:12.390Z,48.61
2018-10-03T12:57:40.078Z,39.21
2018-10-03T13:00:07.802Z,36.73
2018-10-03T13:02:35.534Z,36.49
2018-10-03T13:05:03.195Z,35.09
2018-10-03T13:07:31.123Z,30.94
2018-10-03T13:09:58.810Z,29.19
2018-10-03T13:12:26.410Z,30.46
2018-10-03T13:14:54.126Z,31.13
2018-10-03T13:17:21.805Z,33.01
2018-10-03T13:19:49.440Z,32.68
2018-10-03T13:22:17.159Z,29.33
2018-10-03T13:24:44.794Z,26.33
2018-10-03T13:27:12.480Z,26.84
2018-10-03T13:29:40.396Z,27.13
2018-10-03T13:32:08.300Z,30.15
2018-10-03T13:34:36.428Z,29.39
2018-10-03T13:37:04.559Z,28.37
2018-10-03T13:39:32.555Z,27.68
2018-10-03T13:42:00.434Z,31.77
2018-10-03T13:44:28.264Z,31.58
2018-10-03T13:46:56.206Z,32.50
2018-10-03T13:49:24.246Z,35.24
2018-10-03T13:51:52.202Z,34.37
2018-10-03T13:54:20.240Z,32.45
2018-10-03T13:56:48.144Z,31.93
2018-10-03T13:59:16.276Z,30.19
2018-10-03T14:01:44.338Z,31.49
2018-10-03T14:04:12.222Z,29.15
2018-10-03T14:06:40.024Z,31.10
2018-10-03T14:09:09.488Z,34.40
2018-10-03T14:11:37.589Z,35.76
2018-10-03T14:14:05.569Z,33.69
2018-10-03T14:16:33.438Z,34.14
2018-10-03T14:19:01.265Z,32.01
2018-10-03T14:21:29.290Z,30.28
2018-10-03T14:23:57.140Z,32.05
2018-10-03T14:26:25.140Z,35.27
2018-10-03T14:28:53.288Z,36.98
2018-10-03T14:31:21.379Z,39.89
2018-10-03T14:33:49.609Z,40.01
2018-10-03T14:36:17.614Z,38.93
2018-10-03T14:38:45.614Z,36.32
2018-10-03T14:41:13.556Z,38.41
2018-10-03T14:43:41.614Z,40.34
2018-10-03T14:46:09.626Z,41.50
2018-10-03T14:48:37.556Z,43.08
2018-10-03T14:51:05.648Z,42.88
2018-10-03T14:53:33.776Z,45.00
2018-10-03T14:56:01.644Z,45.83
2018-10-03T14:58:29.775Z,48.98
2018-10-03T15:00:57.623Z,49.92
2018-10-03T15:03:25.606Z,49.13
2018-10-03T15:05:53.604Z,48.43
2018-10-03T15:08:21.462Z,47.06
2018-10-03T15:10:49.399Z,43.23
2018-10-03T15:13:17.453Z,40.53
2018-10-03T15:15:46.602Z,40.17
2018-10-03T15:18:14.536Z,38.18
2018-10-03T15:20:42.454Z,36.75
2018-10-03T15:23:10.459Z,37.81
2018-10-03T15:25:38.402Z,40.17
2018-10-03T15:28:06.354Z,44.23
2018-10-03T15:30:34.549Z,44.74
2018-10-03T15:33:02.488Z,46.51
2018-10-03T15:35:30.562Z,47.19
2018-10-03T15:37:59.805Z,48.85
2018-10-03T15:40:34.747Z,48.87
2018-10-03T15:43:02.696Z,49.37
2018-10-03T15:45:30.760Z,50.20
2018-10-03T15:47:58.823Z,51.21
2018-10-03T15:50:27.015Z,51.59
2018-10-03T15:52:54.944Z,52.50
2018-10-03T15:55:22.949Z,53.99
2018-10-03T15:57:51.053Z,53.06
2018-10-03T16:00:18.999Z,53.42
2018-10-03T16:02:46.892Z,55.21
2018-10-03T16:05:14.895Z,55.44
2018-10-03T16:07:42.934Z,55.72
2018-10-03T16:10:10.922Z,55.53
2018-10-03T16:12:38.762Z,55.53
2018-10-03T16:15:06.875Z,55.63
2018-10-03T16:17:34.794Z,56.44
2018-10-03T16:20:02.824Z,56.51
2018-10-03T16:22:30.797Z,57.95
2018-10-03T16:24:58.944Z,58.69
2018-10-03T16:27:26.943Z,59.63
2018-10-03T16:29:54.846Z,60.60
2018-10-03T16:32:22.934Z,61.37
2018-10-03T16:34:51.193Z,61.44
2018-10-03T16:37:19.295Z,61.59
2018-10-03T16:39:47.161Z,61.59
2018-10-03T16:42:15.491Z,62.10
2018-10-03T16:44:43.622Z,62.48
2018-10-03T16:47:11.577Z,62.86
2018-10-03T16:49:39.620Z,63.75
2018-10-03T16:52:07.683Z,63.89
2018-10-03T16:54:35.641Z,63.71
2018-10-03T16:57:03.678Z,64.05
2018-10-03T16:59:31.619Z,63.46
2018-10-03T17:01:59.900Z,63.60
2018-10-03T17:04:28.011Z,62.70
2018-10-03T17:06:56.590Z,61.99
2018-10-03T17:09:24.618Z,62.31
2018-10-03T17:11:52.494Z,61.26
2018-10-03T17:14:23.660Z,60.39
2018-10-03T17:16:52.251Z,60.44
2018-10-03T17:19:20.151Z,61.35
2018-10-03T17:21:49.207Z,60.40
2018-10-03T17:24:17.157Z,60.28
2018-10-03T17:26:45.592Z,59.63
2018-10-03T17:29:13.895Z,58.64
2018-10-03T17:31:42.882Z,58.81
2018-10-03T17:34:14.327Z,58.78
2018-10-03T17:36:44.000Z,59.48
2018-10-03T17:39:12.342Z,58.94
2018-10-03T17:41:41.306Z,59.03
2018-10-03T17:44:09.562Z,58.48
2018-10-03T17:46:37.603Z,59.10
2018-10-03T17:49:05.784Z,58.60
2018-10-03T17:51:33.577Z,58.23
2018-10-03T17:54:01.586Z,57.54
2018-10-03T17:56:29.592Z,57.74
2018-10-03T17:58:57.689Z,57.36
2018-10-03T18:01:27.408Z,57.37
2018-10-03T18:03:55.241Z,57.69
2018-10-03T18:06:23.277Z,57.80
2018-10-03T18:08:51.226Z,57.63
2018-10-03T18:11:19.615Z,58.25
2018-10-03T18:13:47.646Z,58.05
2018-10-03T18:16:15.985Z,58.12
2018-10-03T18:18:43.939Z,58.70
2018-10-03T18:21:15.155Z,57.78
2018-10-03T18:23:43.182Z,58.12
2018-10-03T18:26:11.373Z,58.93
2018-10-03T18:28:39.309Z,58.33
2018-10-03T18:31:07.153Z,58.88
2018-10-03T18:33:35.091Z,59.80
2018-10-03T18:36:03.199Z,59.58
2018-10-03T18:38:31.243Z,59.11
2018-10-03T18:40:59.897Z,59.58
2018-10-03T18:43:28.230Z,58.91
2018-10-03T18:45:56.341Z,59.08
2018-10-03T18:48:24.817Z,58.49
2018-10-03T18:50:52.837Z,58.73
2018-10-03T18:53:20.850Z,57.82
2018-10-03T18:55:49.087Z,57.80
2018-10-03T18:58:17.291Z,58.09
2018-10-03T19:00:45.712Z,57.85
2018-10-03T19:03:13.978Z,58.49
2018-10-03T19:05:42.236Z,59.17
2018-10-03T19:08:10.497Z,59.00
2018-10-03T19:10:38.917Z,59.30
2018-10-03T19:13:06.952Z,58.56
2018-10-03T19:15:38.236Z,58.81
2018-10-03T19:18:06.456Z,58.95
2018-10-03T19:20:35.066Z,58.96
2018-10-03T19:23:03.595Z,58.93
2018-10-03T19:25:32.115Z,59.59
2018-10-03T19:28:00.143Z,58.89
2018-10-03T19:30:28.495Z,59.32
2018-10-03T19:32:56.748Z,58.60
2018-10-03T19:35:26.268Z,58.68
2018-10-03T19:37:54.196Z,58.23
2018-10-03T19:40:22.203Z,57.68
2018-10-03T19:42:50.411Z,58.56
2018-10-03T19:45:18.695Z,58.68
2018-10-03T19:47:47.183Z,58.07
2018-10-03T19:50:18.168Z,58.13
2018-10-03T19:52:46.352Z,57.72
2018-10-03T19:55:14.432Z,58.08
2018-10-03T19:57:42.442Z,58.67
2018-10-03T20:00:10.831Z,57.93
2018-10-03T20:02:38.726Z,58.45
2018-10-03T20:05:07.050Z,58.40
2018-10-03T20:07:35.124Z,58.07
2018-10-03T20:10:05.133Z,58.14
2018-10-03T20:12:33.157Z,57.99
2018-10-03T20:15:01.266Z,58.02
2018-10-03T20:17:29.212Z,58.13
2018-10-03T20:19:57.818Z,58.85
2018-10-03T20:22:25.700Z,58.85
2018-10-03T20:24:53.724Z,58.10
2018-10-03T20:27:21.734Z,58.26
2018-10-03T20:29:49.520Z,59.01
2018-10-03T20:32:17.520Z,59.47
2018-10-03T20:34:45.311Z,59.20
2018-10-03T20:37:13.630Z,59.23
2018-10-03T20:39:41.362Z,58.50
2018-10-03T20:42:09.157Z,58.44
2018-10-03T20:44:37.013Z,58.57
2018-10-03T20:47:05.598Z,58.14
2018-10-03T20:52:17.123Z,58.18
2018-10-03T20:54:44.907Z,57.71
2018-10-03T20:57:12.628Z,57.65
2018-10-03T20:59:40.408Z,57.24
2018-10-03T21:02:08.332Z,57.44
2018-10-03T21:04:36.471Z,57.50
2018-10-03T21:07:04.193Z,57.73
2018-10-03T21:09:31.899Z,56.79
2018-10-03T21:11:59.653Z,57.32
2018-10-03T21:14:27.666Z,57.09
2018-10-03T21:16:55.467Z,57.51
2018-10-03T21:19:24.853Z,57.19
2018-10-03T21:21:53.154Z,57.53
2018-10-03T21:24:20.906Z,57.79
2018-10-03T21:26:48.933Z,57.86
2018-10-03T21:29:16.854Z,57.69
2018-10-03T21:31:45.296Z,57.55
2018-10-03T21:34:13.041Z,57.35
2018-10-03T21:36:40.909Z,57.50
2018-10-03T21:39:09.046Z,57.69
2018-10-03T21:41:36.935Z,56.76
2018-10-03T21:44:04.885Z,57.55
2018-10-03T21:46:32.856Z,58.19
2018-10-03T21:49:00.778Z,57.58
2018-10-03T21:51:28.640Z,56.95
2018-10-03T21:53:56.519Z,57.54
2018-10-03T21:56:24.322Z,57.05
2018-10-03T21:58:52.101Z,56.76
2018-10-03T22:01:19.988Z,57.75
2018-10-03T22:03:47.768Z,56.71
2018-10-03T22:06:15.770Z,57.40
2018-10-03T22:08:43.561Z,57.13
2018-10-03T22:11:11.350Z,56.80
2018-10-03T22:13:39.184Z,57.00
2018-10-03T22:16:08.893Z,56.58
2018-10-03T22:18:36.665Z,56.20
2018-10-03T22:21:04.821Z,57.26
2018-10-03T22:23:32.658Z,56.63
2018-10-03T22:26:01.086Z,57.27
2018-10-03T22:28:29.616Z,57.54
2018-10-03T22:30:58.047Z,57.93
2018-10-03T22:33:25.903Z,58.17
2018-10-03T22:35:55.101Z,58.50
2018-10-03T22:38:22.867Z,59.65
2018-10-03T22:40:51.095Z,59.45
2018-10-03T22:43:18.849Z,59.30
2018-10-03T22:45:47.278Z,59.61
2018-10-03T22:48:15.117Z,60.44
2018-10-03T22:53:33.457Z,59.86
2018-10-03T22:56:01.341Z,59.45
2018-10-03T22:58:29.068Z,59.16
2018-10-03T23:00:56.962Z,58.69
2018-10-03T23:03:24.758Z,58.94
2018-10-03T23:05:52.534Z,59.10
2018-10-03T23:08:20.320Z,59.09
2018-10-03T23:10:48.004Z,59.34
2018-10-03T23:13:15.840Z,58.84
2018-10-03T23:15:43.624Z,58.81
2018-10-03T23:18:11.227Z,59.03
2018-10-03T23:20:38.875Z,59.37
2018-10-03T23:23:06.527Z,59.22
2018-10-03T23:25:34.487Z,59.74
2018-10-03T23:28:02.085Z,59.78
2018-10-03T23:30:29.719Z,60.15
2018-10-03T23:32:57.403Z,59.66
2018-10-03T23:35:25.115Z,59.42
2018-10-03T23:37:52.773Z,59.31
2018-10-03T23:40:20.462Z,59.04
2018-10-03T23:42:48.117Z,59.30
2018-10-03T23:45:15.818Z,59.38
2018-10-03T23:47:43.452Z,59.50
2018-10-03T23:50:11.076Z,59.26
2018-10-03T23:52:38.763Z,59.62
2018-10-03T23:55:06.930Z,59.02
2018-10-03T23:57:34.766Z,59.25
